Time;durP1;ratioP1;P1;durP2;ratioP2;P2;SDS_P1;SDS_P2;PMS_P1;PMS_P2;Temp;Humidity;BMP_temperature;BMP_pressure;BME280_temperature;BME280_humidity;BME280_pressure;Samples;Min_cycle;Max_cycle;Signal;HPM_P1;HPM_P2
2023/07/31 00:00:39;;;;;;;0.10;0.03;;;;;;;42.20;37.22;98633.22;7392145;19;20022;-79
2023/07/31 00:03:05;;;;;;;0.22;0.10;;;;;;;42.91;36.81;98631.06;7393316;19;20014;-79
2023/07/31 00:05:31;;;;;;;0.47;0.20;;;;;;;40.33;38.35;98640.94;7392802;19;20014;-79
2023/07/31 00:07:57;;;;;;;0.20;0.20;;;;;;;38.72;42.60;98633.09;7392428;19;20074;-79
2023/07/31 00:10:24;;;;;;;0.60;0.20;;;;;;;42.13;37.99;98617.13;7392281;19;20090;-79
2023/07/31 00:12:50;;;;;;;0.20;0.20;;;;;;;44.20;35.21;98612.19;7393088;19;20029;-80
2023/07/31 00:15:16;;;;;;;0.10;0.00;;;;;;;44.32;34.47;98618.69;7391695;19;20142;-79
2023/07/31 00:17:42;;;;;;;0.10;0.10;;;;;;;44.59;33.90;98621.44;7393961;19;20018;-79
2023/07/31 00:20:08;;;;;;;0.10;0.00;;;;;;;44.76;33.58;98616.84;7390086;19;20362;-79
2023/07/31 00:22:36;;;;;;;0.88;0.35;;;;;;;45.18;32.42;98607.63;7391990;19;20019;-80
2023/07/31 00:25:02;;;;;;;0.10;0.10;;;;;;;45.62;32.13;98606.34;7392162;19;20014;-80
2023/07/31 00:27:28;;;;;;;0.10;0.00;;;;;;;40.85;36.09;98617.28;7392832;19;20010;-79
2023/07/31 00:29:54;;;;;;;0.30;0.10;;;;;;;37.25;40.98;98616.47;7390840;19;20015;-80
2023/07/31 00:32:20;;;;;;;0.30;0.10;;;;;;;37.99;41.22;98612.88;7390772;19;20111;-79
2023/07/31 00:34:46;;;;;;;0.10;0.10;;;;;;;36.56;43.78;98607.59;7388609;19;20022;-79
2023/07/31 00:37:13;;;;;;;0.68;0.10;;;;;;;35.85;45.34;98605.03;7393101;19;20015;-79
2023/07/31 00:39:39;;;;;;;0.00;0.00;;;;;;;35.56;46.85;98600.63;7392787;19;20965;-79
2023/07/31 00:42:05;;;;;;;0.05;0.05;;;;;;;36.54;46.15;98604.66;7391919;19;20023;-79
2023/07/31 00:44:32;;;;;;;2.30;0.10;;;;;;;36.46;46.26;98604.47;7391564;19;20014;-79
2023/07/31 00:47:00;;;;;;;0.00;0.00;;;;;;;37.23;45.96;98598.28;7391350;19;20520;-79
2023/07/31 00:49:27;;;;;;;0.10;0.00;;;;;;;36.47;46.55;98597.25;7392033;19;20294;-79
2023/07/31 00:51:54;;;;;;;0.35;0.20;;;;;;;37.10;45.82;98597.25;7390436;19;20461;-79
2023/07/31 00:54:20;;;;;;;0.00;0.00;;;;;;;34.53;50.07;98575.78;7388893;19;20017;-79
2023/07/31 00:56:48;;;;;;;0.17;0.10;;;;;;;37.09;46.44;98563.84;7389817;19;20035;-79
2023/07/31 00:59:14;;;;;;;0.50;0.08;;;;;;;37.72;45.28;98562.22;7394284;19;20019;-79
2023/07/31 01:01:40;;;;;;;0.10;0.10;;;;;;;38.05;44.54;98567.19;7388639;19;20477;-79
2023/07/31 01:04:07;;;;;;;0.60;0.20;;;;;;;36.38;47.06;98576.00;7391355;19;20010;-79
2023/07/31 01:06:45;;;;;;;0.40;0.10;;;;;;;35.64;48.11;98560.31;7394074;19;20524;-79
2023/07/31 01:09:31;;;;;;;0.10;0.03;;;;;;;38.16;45.65;98556.47;7393788;19;20029;-79
2023/07/31 01:12:01;;;;;;;0.28;0.10;;;;;;;32.61;59.65;98560.22;7390062;19;20035;-79
2023/07/31 01:14:28;;;;;;;0.00;0.00;;;;;;;28.74;93.00;98557.63;7389478;19;20009;-79
2023/07/31 01:16:54;;;;;;;0.28;0.00;;;;;;;27.25;94.31;98566.06;7389865;19;20027;-79
2023/07/31 01:19:23;;;;;;;0.10;0.00;;;;;;;29.46;100.00;98563.63;7392300;19;20035;-79
2023/07/31 01:22:17;;;;;;;0.25;0.10;;;;;;;22.41;100.00;98576.66;7391208;19;20078;-79
2023/07/31 01:24:58;;;;;;;0.15;0.10;;;;;;;22.40;100.00;98575.91;7390418;19;20023;-79
2023/07/31 01:27:34;;;;;;;0.10;0.00;;;;;;;22.97;100.00;98572.63;7397598;19;20513;-79
2023/07/31 01:30:10;;;;;;;0.30;0.20;;;;;;;23.42;100.00;98568.28;7396521;19;21183;-79
2023/07/31 01:32:40;;;;;;;0.00;0.00;;;;;;;23.04;100.00;98568.16;7396451;19;20010;-79
2023/07/31 01:35:07;;;;;;;0.10;0.10;;;;;;;21.13;100.00;98559.75;7394092;19;20030;-79
2023/07/31 01:37:34;;;;;;;0.00;0.00;;;;;;;19.93;100.00;98566.13;7400229;19;20015;-79
2023/07/31 01:40:01;;;;;;;0.20;0.10;;;;;;;18.71;100.00;98570.44;7398909;19;20043;-79
2023/07/31 01:42:28;;;;;;;0.00;0.00;;;;;;;19.42;100.00;98566.47;7396830;19;20018;-79
2023/07/31 01:44:54;;;;;;;0.10;0.10;;;;;;;29.06;100.00;98553.63;7396337;19;20010;-79
2023/07/31 01:47:20;;;;;;;0.00;0.00;;;;;;;40.76;53.68;98540.53;7395741;19;20011;-79
2023/07/31 01:49:46;;;;;;;0.00;0.00;;;;;;;42.40;46.01;98535.91;7398090;19;20544;-79
2023/07/31 01:52:12;;;;;;;0.00;0.00;;;;;;;42.89;42.28;98537.28;7396707;19;20018;-79
2023/07/31 01:54:38;;;;;;;0.32;0.30;;;;;;;27.64;100.00;98550.63;7395976;19;20014;-79
2023/07/31 01:57:04;;;;;;;0.20;0.20;;;;;;;23.30;100.00;98550.28;7396389;19;20477;-79
2023/07/31 01:59:31;;;;;;;2.03;0.20;;;;;;;23.06;100.00;98542.75;7397876;19;20030;-79
2023/07/31 02:01:57;;;;;;;0.10;0.03;;;;;;;22.48;100.00;98536.81;7395636;19;20018;-79
2023/07/31 02:04:23;;;;;;;0.08;0.08;;;;;;;22.13;100.00;98535.44;7396265;19;20469;-80
2023/07/31 02:06:49;;;;;;;0.88;0.13;;;;;;;21.95;100.00;98536.78;7399580;19;20014;-79
2023/07/31 02:09:15;;;;;;;3.15;0.08;;;;;;;21.80;100.00;98534.88;7396253;19;20033;-80
2023/07/31 02:11:42;;;;;;;0.55;0.08;;;;;;;21.64;100.00;98529.94;7394526;19;20018;-79
2023/07/31 02:14:08;;;;;;;0.00;0.00;;;;;;;21.56;100.00;98534.97;7395889;19;20017;-79
2023/07/31 02:16:34;;;;;;;0.30;0.10;;;;;;;21.48;100.00;98534.31;7396944;19;20093;-79
2023/07/31 02:19:00;;;;;;;0.00;0.00;;;;;;;21.17;100.00;98533.09;7397251;19;20523;-80
2023/07/31 02:21:27;;;;;;;0.00;0.00;;;;;;;20.97;100.00;98527.19;7396999;19;20019;-79
2023/07/31 02:23:53;;;;;;;0.00;0.00;;;;;;;21.19;100.00;98530.44;7395542;19;20022;-79
2023/07/31 02:26:19;;;;;;;0.52;0.10;;;;;;;21.03;100.00;98530.56;7394888;19;20022;-79
2023/07/31 02:28:45;;;;;;;0.00;0.00;;;;;;;21.01;100.00;98533.19;7397275;19;20032;-79
2023/07/31 02:31:11;;;;;;;0.20;0.10;;;;;;;20.49;100.00;98528.72;7396908;19;20014;-80
2023/07/31 02:33:37;;;;;;;0.10;0.00;;;;;;;20.75;100.00;98533.78;7393998;19;20023;-79
2023/07/31 02:36:04;;;;;;;0.03;0.03;;;;;;;21.04;100.00;98532.09;7395187;19;20064;-79
2023/07/31 02:38:30;;;;;;;0.20;0.00;;;;;;;20.70;100.00;98522.72;7396822;19;20019;-79
2023/07/31 02:40:56;;;;;;;0.00;0.00;;;;;;;20.64;100.00;98522.94;7395684;19;20089;-79
2023/07/31 02:43:22;;;;;;;1.80;0.20;;;;;;;20.51;100.00;98517.56;7393641;19;20018;-79
2023/07/31 02:45:52;;;;;;;0.00;0.00;;;;;;;20.47;100.00;98505.16;7394693;19;20054;-79
2023/07/31 02:48:19;;;;;;;0.10;0.00;;;;;;;20.54;100.00;98510.75;7394023;19;20011;-79
2023/07/31 02:50:46;;;;;;;0.00;0.00;;;;;;;20.39;100.00;98502.38;7394298;19;20255;-79
2023/07/31 02:53:12;;;;;;;0.00;0.00;;;;;;;20.39;100.00;98502.38;7394646;19;20015;-79
2023/07/31 02:55:38;;;;;;;1.48;0.17;;;;;;;20.46;100.00;98507.25;7397206;19;20025;-79
2023/07/31 02:58:04;;;;;;;0.00;0.00;;;;;;;20.60;100.00;98511.28;7395646;19;20026;-79
2023/07/31 03:00:31;;;;;;;0.50;0.00;;;;;;;20.61;100.00;98507.13;7393884;19;20050;-79
2023/07/31 03:02:57;;;;;;;0.10;0.00;;;;;;;22.77;100.00;98499.31;7392832;19;20112;-79
2023/07/31 03:05:23;;;;;;;0.68;0.10;;;;;;;20.85;100.00;98492.22;7393356;19;20027;-79
2023/07/31 03:07:49;;;;;;;0.38;0.38;;;;;;;20.62;100.00;98497.31;7396145;19;20011;-79
2023/07/31 03:10:16;;;;;;;0.08;0.00;;;;;;;20.80;100.00;98498.09;7395264;19;20039;-79
2023/07/31 03:12:42;;;;;;;0.00;0.00;;;;;;;24.41;100.00;98487.38;7392881;19;20019;-79
2023/07/31 03:15:08;;;;;;;0.13;0.10;;;;;;;20.94;100.00;98502.88;7392181;19;20030;-79
2023/07/31 03:17:34;;;;;;;0.20;0.10;;;;;;;21.99;100.00;98500.25;7392676;19;20014;-79
2023/07/31 03:20:00;;;;;;;0.00;0.00;;;;;;;21.72;100.00;98490.97;7392167;19;20015;-79
2023/07/31 03:22:26;;;;;;;0.00;0.00;;;;;;;22.16;100.00;98493.78;7392346;19;20014;-79
2023/07/31 03:24:53;;;;;;;0.10;0.00;;;;;;;22.49;100.00;98498.59;7393761;19;20023;-79
2023/07/31 03:27:19;;;;;;;0.10;0.10;;;;;;;22.20;100.00;98500.53;7392280;19;20031;-79
2023/07/31 03:29:45;;;;;;;0.55;0.10;;;;;;;21.67;100.00;98495.53;7391958;19;20042;-79
2023/07/31 03:32:11;;;;;;;0.17;0.05;;;;;;;22.35;100.00;98491.06;7390505;19;20349;-79
2023/07/31 03:34:37;;;;;;;0.00;0.00;;;;;;;22.75;100.00;98490.63;7391419;19;20010;-79
2023/07/31 03:37:05;;;;;;;0.00;0.00;;;;;;;22.42;100.00;98488.09;7395847;19;20019;-79
2023/07/31 03:39:32;;;;;;;2.55;0.10;;;;;;;21.67;100.00;98489.13;7395280;19;20029;-79
2023/07/31 03:41:58;;;;;;;10.25;0.25;;;;;;;21.21;100.00;98496.63;7393419;19;20015;-79
2023/07/31 03:44:24;;;;;;;0.25;0.10;;;;;;;21.41;100.00;98501.13;7391725;19;20016;-79
2023/07/31 03:46:50;;;;;;;0.75;0.20;;;;;;;21.09;100.00;98499.19;7391305;19;20472;-79
2023/07/31 03:49:16;;;;;;;0.10;0.10;;;;;;;19.51;100.00;98490.38;7391544;19;20014;-79
2023/07/31 03:51:42;;;;;;;0.00;0.00;;;;;;;21.91;100.00;98488.28;7392939;19;20028;-79
2023/07/31 03:54:08;;;;;;;0.45;0.05;;;;;;;20.27;100.00;98496.41;7391384;19;20014;-79
2023/07/31 03:56:35;;;;;;;0.20;0.10;;;;;;;19.66;100.00;98489.59;7390921;19;20018;-79
2023/07/31 03:59:01;;;;;;;0.10;0.00;;;;;;;20.64;100.00;98480.50;7394155;19;20018;-79
2023/07/31 04:01:27;;;;;;;0.10;0.10;;;;;;;21.54;100.00;98486.63;7392608;19;20360;-79
2023/07/31 04:03:53;;;;;;;0.00;0.00;;;;;;;21.82;100.00;98494.59;7390864;19;20037;-79
2023/07/31 04:06:19;;;;;;;0.03;0.03;;;;;;;22.28;100.00;98492.69;7392986;19;20026;-79
2023/07/31 04:08:45;;;;;;;5.68;0.40;;;;;;;22.30;100.00;98486.41;7394641;19;20103;-79
2023/07/31 04:11:12;;;;;;;0.70;0.10;;;;;;;20.72;100.00;98489.69;7392820;19;20019;-79
2023/07/31 04:13:39;;;;;;;1.13;0.22;;;;;;;21.08;100.00;98489.97;7390547;19;20017;-79
2023/07/31 04:16:05;;;;;;;0.32;0.30;;;;;;;20.11;100.00;98495.00;7391062;19;20386;-81
2023/07/31 04:18:32;;;;;;;0.10;0.10;;;;;;;19.53;100.00;98499.03;7391652;19;20053;-79
2023/07/31 04:20:58;;;;;;;0.70;0.20;;;;;;;19.53;100.00;98504.66;7391430;19;20107;-80
2023/07/31 04:23:25;;;;;;;0.30;0.20;;;;;;;19.77;100.00;98505.34;7391883;19;20439;-79
2023/07/31 04:25:51;;;;;;;0.45;0.20;;;;;;;20.07;100.00;98510.84;7391374;19;20465;-79
2023/07/31 04:28:17;;;;;;;5.88;0.65;;;;;;;20.84;100.00;98513.34;7393425;19;20015;-79
2023/07/31 04:30:43;;;;;;;0.00;0.00;;;;;;;19.96;100.00;98512.03;7390997;19;20029;-80
2023/07/31 04:33:09;;;;;;;0.65;0.28;;;;;;;20.21;100.00;98506.44;7390748;19;20033;-79
2023/07/31 04:35:35;;;;;;;0.10;0.10;;;;;;;20.54;100.00;98507.19;7389878;19;20025;-79
2023/07/31 04:38:02;;;;;;;0.15;0.10;;;;;;;20.67;100.00;98510.47;7392449;19;20038;-79
2023/07/31 04:40:28;;;;;;;0.17;0.17;;;;;;;20.95;100.00;98515.72;7391727;19;20386;-79
2023/07/31 04:42:54;;;;;;;0.52;0.10;;;;;;;20.92;100.00;98508.38;7389035;19;20091;-79
2023/07/31 04:45:20;;;;;;;0.55;0.30;;;;;;;20.60;100.00;98510.53;7389890;19;20025;-79
2023/07/31 04:47:46;;;;;;;0.38;0.10;;;;;;;20.51;100.00;98503.41;7392154;19;20030;-80
2023/07/31 04:50:12;;;;;;;1.52;0.95;;;;;;;20.70;100.00;98500.09;7389508;19;20014;-79
2023/07/31 04:52:39;;;;;;;2.83;0.63;;;;;;;20.45;100.00;98505.72;7390736;19;20480;-79
2023/07/31 04:55:05;;;;;;;1.58;0.30;;;;;;;29.35;100.00;98496.38;7390337;19;20358;-79
2023/07/31 04:57:31;;;;;;;0.60;0.32;;;;;;;21.67;100.00;98514.63;7392265;19;20417;-79
2023/07/31 04:59:57;;;;;;;0.88;0.15;;;;;;;20.79;100.00;98514.34;7391542;19;20014;-78
2023/07/31 05:02:24;;;;;;;0.30;0.20;;;;;;;20.01;100.00;98510.31;7398579;19;20465;-79
2023/07/31 05:04:50;;;;;;;1.00;0.73;;;;;;;20.36;100.00;98503.53;7407550;19;20604;-80
2023/07/31 05:07:17;;;;;;;0.20;0.15;;;;;;;20.49;100.00;98514.56;7403822;19;20019;-79
2023/07/31 05:09:43;;;;;;;0.45;0.08;;;;;;;19.89;100.00;98514.88;7399267;19;20046;-80
2023/07/31 05:12:09;;;;;;;3.05;0.50;;;;;;;19.88;100.00;98519.06;7397383;19;20509;-79
2023/07/31 05:14:35;;;;;;;0.60;0.20;;;;;;;20.24;100.00;98525.88;7397061;19;20014;-79
2023/07/31 05:17:01;;;;;;;0.52;0.10;;;;;;;20.39;100.00;98531.44;7396527;19;20023;-80
2023/07/31 05:19:27;;;;;;;0.63;0.30;;;;;;;20.35;100.00;98538.81;7400394;19;20018;-79
2023/07/31 05:21:53;;;;;;;0.95;0.22;;;;;;;20.40;100.00;98523.66;7398432;19;20351;-80
2023/07/31 05:24:19;;;;;;;1.98;0.50;;;;;;;20.44;100.00;98526.13;7399101;19;20555;-80
2023/07/31 05:26:45;;;;;;;1.02;0.45;;;;;;;20.05;100.00;98519.91;7396923;19;20026;-79
2023/07/31 05:29:11;;;;;;;0.95;0.55;;;;;;;19.67;100.00;98519.31;7398871;19;20074;-80
2023/07/31 05:31:38;;;;;;;1.27;0.45;;;;;;;20.16;100.00;98518.72;7397184;19;20018;-80
2023/07/31 05:34:04;;;;;;;0.70;0.45;;;;;;;21.08;100.00;98521.09;7395163;19;20074;-80
2023/07/31 05:36:30;;;;;;;1.20;0.45;;;;;;;19.97;100.00;98518.41;7398273;19;20021;-80
2023/07/31 05:38:56;;;;;;;4.70;0.60;;;;;;;20.59;100.00;98521.09;7399312;19;20021;-80
2023/07/31 05:41:23;;;;;;;1.00;0.40;;;;;;;19.95;100.00;98521.84;7395965;19;21208;-80
2023/07/31 05:43:49;;;;;;;1.70;0.50;;;;;;;19.86;100.00;98518.88;7397756;19;20024;-80
2023/07/31 05:46:15;;;;;;;0.70;0.30;;;;;;;20.19;100.00;98511.91;7397737;19;20014;-79
2023/07/31 05:48:41;;;;;;;1.65;0.32;;;;;;;19.81;100.00;98511.34;7398164;19;20027;-79
2023/07/31 05:51:07;;;;;;;7.05;0.43;;;;;;;20.91;100.00;98504.06;7398041;19;20022;-79
2023/07/31 05:53:33;;;;;;;2.80;0.47;;;;;;;19.83;100.00;98494.59;7396686;19;20018;-80
2023/07/31 05:55:59;;;;;;;0.75;0.13;;;;;;;19.71;100.00;98499.16;7397457;19;20468;-80
2023/07/31 05:58:25;;;;;;;1.50;0.40;;;;;;;19.52;100.00;98496.78;7398564;19;20368;-81
2023/07/31 06:00:52;;;;;;;0.65;0.35;;;;;;;19.87;100.00;98498.53;7396799;19;20006;-80
2023/07/31 06:03:18;;;;;;;2.08;0.82;;;;;;;19.79;100.00;98497.06;7395345;19;20027;-80
2023/07/31 06:05:44;;;;;;;4.28;0.77;;;;;;;20.02;100.00;98500.50;7396505;19;20025;-80
2023/07/31 06:08:10;;;;;;;0.93;0.57;;;;;;;19.76;100.00;98503.84;7397603;19;20107;-80
2023/07/31 06:10:37;;;;;;;2.55;0.70;;;;;;;19.68;100.00;98501.78;7395683;19;20018;-80
2023/07/31 06:13:03;;;;;;;1.02;0.63;;;;;;;19.61;100.00;98502.59;7394796;19;20018;-80
2023/07/31 06:15:29;;;;;;;5.35;1.02;;;;;;;19.60;100.00;98492.59;7394782;19;20493;-80
2023/07/31 06:17:55;;;;;;;2.85;0.68;;;;;;;19.58;100.00;98495.25;7397117;19;20059;-80
2023/07/31 06:20:21;;;;;;;2.47;0.43;;;;;;;19.58;100.00;98494.50;7396164;19;20015;-80
2023/07/31 06:22:47;;;;;;;5.47;0.57;;;;;;;19.62;100.00;98489.94;7395727;19;20491;-80
2023/07/31 06:25:14;;;;;;;2.45;0.63;;;;;;;20.24;100.00;98496.84;7396360;19;20039;-80
2023/07/31 06:27:40;;;;;;;2.58;1.02;;;;;;;20.67;100.00;98506.91;7396219;19;20037;-80
2023/07/31 06:30:06;;;;;;;3.78;0.40;;;;;;;20.64;100.00;98505.97;7395511;19;20010;-80
2023/07/31 06:32:32;;;;;;;1.83;1.02;;;;;;;20.68;100.00;98511.97;7394025;19;20024;-80
2023/07/31 06:34:58;;;;;;;1.75;0.95;;;;;;;20.72;100.00;98512.34;7394845;19;20018;-80
2023/07/31 06:37:25;;;;;;;3.10;0.60;;;;;;;20.73;100.00;98513.81;7399423;19;20010;-80
2023/07/31 06:39:51;;;;;;;2.28;0.52;;;;;;;20.53;100.00;98512.09;7397647;19;20018;-80
2023/07/31 06:42:17;;;;;;;0.88;0.47;;;;;;;20.70;100.00;98520.66;7394018;19;20022;-80
2023/07/31 06:44:43;;;;;;;0.47;0.20;;;;;;;20.82;100.00;98518.84;7393890;19;20043;-80
2023/07/31 06:47:09;;;;;;;2.40;0.95;;;;;;;20.56;100.00;98522.25;7394183;19;20015;-81
2023/07/31 06:49:35;;;;;;;3.92;1.10;;;;;;;20.43;100.00;98533.84;7393211;19;20029;-81
2023/07/31 06:52:01;;;;;;;1.35;0.20;;;;;;;20.56;100.00;98532.81;7393283;19;20078;-80
2023/07/31 06:54:28;;;;;;;5.03;0.32;;;;;;;20.79;100.00;98534.13;7392911;19;20014;-81
2023/07/31 06:56:54;;;;;;;2.95;0.20;;;;;;;20.75;100.00;98533.78;7394616;19;20021;-81
2023/07/31 06:59:20;;;;;;;3.38;0.73;;;;;;;20.65;100.00;98529.34;7397698;19;20026;-80
2023/07/31 07:01:46;;;;;;;5.25;1.48;;;;;;;20.41;100.00;98530.84;7394928;19;20022;-80
2023/07/31 07:04:13;;;;;;;3.08;1.13;;;;;;;20.66;100.00;98528.78;7392819;19;20030;-81
2023/07/31 07:06:39;;;;;;;1.13;0.20;;;;;;;20.79;100.00;98522.81;7396128;19;20018;-80
2023/07/31 07:09:06;;;;;;;3.67;1.30;;;;;;;20.36;100.00;98514.84;7396758;19;20014;-81
2023/07/31 07:11:32;;;;;;;3.03;0.45;;;;;;;20.94;100.00;98497.22;7393766;19;20014;-81
2023/07/31 07:13:58;;;;;;;0.43;0.40;;;;;;;21.08;100.00;98489.19;7394823;19;20378;-81
2023/07/31 07:16:24;;;;;;;1.25;0.35;;;;;;;20.97;100.00;98503.81;7392835;19;20019;-81
2023/07/31 07:18:50;;;;;;;6.40;1.33;;;;;;;20.77;100.00;98497.19;7396022;19;20014;-80
2023/07/31 07:21:17;;;;;;;1.30;0.47;;;;;;;21.40;100.00;98493.94;7394288;19;20034;-80
2023/07/31 07:23:43;;;;;;;3.88;0.88;;;;;;;21.45;100.00;98478.81;7395840;19;20031;-80
2023/07/31 07:26:10;;;;;;;2.97;0.60;;;;;;;21.43;100.00;98470.91;7398879;19;20007;-79
2023/07/31 07:28:37;;;;;;;0.82;0.30;;;;;;;21.54;100.00;98478.13;7396954;19;20018;-80
2023/07/31 07:31:03;;;;;;;0.98;0.20;;;;;;;21.31;100.00;98474.81;7396619;19;20098;-80
2023/07/31 07:33:29;;;;;;;0.57;0.40;;;;;;;21.47;100.00;98488.22;7394797;19;20635;-80
2023/07/31 07:35:59;;;;;;;1.52;0.55;;;;;;;21.62;100.00;98492.94;7396220;19;20102;-80
2023/07/31 07:38:25;;;;;;;0.50;0.30;;;;;;;21.57;100.00;98491.13;7396440;19;20021;-80
2023/07/31 07:40:53;;;;;;;2.25;0.80;;;;;;;21.14;100.00;98493.28;7398154;19;20361;-80
2023/07/31 07:43:19;;;;;;;2.40;0.73;;;;;;;21.17;100.00;98497.03;7397543;19;20018;-80
2023/07/31 07:45:45;;;;;;;1.17;0.20;;;;;;;21.20;100.00;98497.97;7396143;19;20019;-80
2023/07/31 07:48:11;;;;;;;1.15;0.50;;;;;;;21.52;100.00;98507.06;7395724;19;20465;-80
2023/07/31 07:50:38;;;;;;;0.30;0.10;;;;;;;21.47;100.00;98513.72;7395742;19;20026;-79
2023/07/31 07:53:04;;;;;;;1.25;0.10;;;;;;;21.24;100.00;98515.28;7395755;19;20015;-80
2023/07/31 07:55:30;;;;;;;3.33;0.65;;;;;;;21.68;100.00;98518.94;7392317;19;20018;-80
2023/07/31 07:57:56;;;;;;;0.40;0.28;;;;;;;21.69;100.00;98523.28;7394019;19;20033;-80
2023/07/31 08:00:23;;;;;;;1.05;0.30;;;;;;;20.91;100.00;98518.22;7392826;19;20030;-80
2023/07/31 08:02:49;;;;;;;2.00;0.47;;;;;;;21.18;100.00;98518.34;7391084;19;20426;-79
2023/07/31 08:05:17;;;;;;;1.00;0.30;;;;;;;21.29;100.00;98517.13;7393012;19;20010;-80
2023/07/31 08:07:43;;;;;;;0.82;0.17;;;;;;;21.19;100.00;98504.94;7394704;19;20700;-80
2023/07/31 08:10:09;;;;;;;1.02;0.40;;;;;;;21.36;100.00;98493.63;7391582;19;20093;-80
2023/07/31 08:12:35;;;;;;;0.75;0.10;;;;;;;21.83;100.00;98491.19;7391640;19;20014;-80
2023/07/31 08:15:02;;;;;;;0.65;0.30;;;;;;;20.37;100.00;98493.72;7391441;19;20022;-79
2023/07/31 08:17:28;;;;;;;1.15;0.35;;;;;;;20.54;100.00;98505.09;7391335;19;20007;-80
2023/07/31 08:19:54;;;;;;;0.82;0.30;;;;;;;20.58;100.00;98502.63;7391880;19;20027;-79
2023/07/31 08:22:22;;;;;;;0.30;0.10;;;;;;;20.74;100.00;98504.00;7391489;19;20014;-80
2023/07/31 08:24:48;;;;;;;0.30;0.22;;;;;;;20.46;100.00;98490.28;7393818;19;20353;-80
2023/07/31 08:27:14;;;;;;;2.58;0.45;;;;;;;20.53;100.00;98483.78;7391895;19;20017;-80
2023/07/31 08:29:40;;;;;;;2.80;0.10;;;;;;;22.42;100.00;98485.25;7388367;19;20007;-80
2023/07/31 08:32:06;;;;;;;0.30;0.30;;;;;;;20.91;100.00;98489.16;7389870;19;20015;-80
2023/07/31 08:34:32;;;;;;;0.22;0.13;;;;;;;21.45;100.00;98475.97;7389195;19;20473;-80
2023/07/31 08:36:58;;;;;;;0.40;0.40;;;;;;;21.08;100.00;98477.88;7394636;19;20082;-80
2023/07/31 08:39:24;;;;;;;0.40;0.38;;;;;;;22.09;100.00;98484.03;7394393;19;20028;-80
2023/07/31 08:41:51;;;;;;;1.85;0.25;;;;;;;21.35;100.00;98489.31;7390039;19;20018;-80
2023/07/31 08:44:17;;;;;;;2.35;0.25;;;;;;;21.37;100.00;98489.47;7392091;19;20031;-80
2023/07/31 08:46:45;;;;;;;3.05;0.93;;;;;;;22.58;100.00;98478.03;7390534;19;20022;-79
2023/07/31 08:49:12;;;;;;;4.28;0.90;;;;;;;24.94;100.00;98464.06;7395498;19;20018;-80
2023/07/31 08:51:39;;;;;;;1.38;0.13;;;;;;;22.58;100.00;98472.34;7391137;19;20026;-80
2023/07/31 08:54:05;;;;;;;0.65;0.32;;;;;;;23.64;100.00;98469.69;7390975;19;20019;-80
2023/07/31 08:56:36;;;;;;;3.00;0.70;;;;;;;28.92;100.00;98464.00;7389637;19;20015;-79
2023/07/31 08:59:04;;;;;;;;;;;;;;;25.40;100.00;98461.47;7395454;19;20011;-80
2023/07/31 09:01:40;;;;;;;2.22;0.65;;;;;;;37.54;74.25;98436.91;7388309;19;19910;-79
2023/07/31 09:04:09;;;;;;;0.80;0.47;;;;;;;38.15;63.94;98445.22;7388391;19;20015;-80
2023/07/31 09:06:36;;;;;;;0.50;0.17;;;;;;;40.26;54.84;98449.00;7390563;19;20472;-80
2023/07/31 09:09:03;;;;;;;0.40;0.20;;;;;;;39.80;54.05;98453.03;7391784;19;20038;-80
2023/07/31 09:11:29;;;;;;;0.10;0.10;;;;;;;40.49;49.53;98438.94;7391555;19;20019;-80
2023/07/31 09:13:57;;;;;;;0.98;0.28;;;;;;;40.43;48.80;98454.25;7389228;19;20026;-80
2023/07/31 09:16:31;;;;;;;0.82;0.17;;;;;;;40.99;46.58;98445.03;7389978;19;20018;-79
2023/07/31 09:18:58;;;;;;;0.32;0.15;;;;;;;40.81;45.38;98436.91;7390951;19;20401;-81
2023/07/31 09:21:25;;;;;;;0.25;0.20;;;;;;;39.60;46.73;98438.28;7394701;19;20030;-83
2023/07/31 09:23:53;;;;;;;1.33;0.30;;;;;;;38.88;47.65;98422.94;7389308;19;20011;-82
2023/07/31 09:26:36;;;;;;;0.30;0.30;;;;;;;38.86;47.40;98435.28;7394168;19;20025;-82
2023/07/31 09:29:18;;;;;;;1.95;0.40;;;;;;;38.14;48.60;98432.09;7398790;19;20050;-84
2023/07/31 09:31:44;;;;;;;0.10;0.00;;;;;;;38.27;49.21;98433.75;7393919;19;20022;-82
2023/07/31 09:34:11;;;;;;;0.25;0.15;;;;;;;38.60;48.42;98426.94;7393853;19;20473;-83
2023/07/31 09:36:45;;;;;;;4.00;0.40;;;;;;;38.38;47.90;98425.94;7393841;19;20018;-83
2023/07/31 09:39:12;;;;;;;1.48;0.10;;;;;;;38.50;47.18;98421.00;7394496;19;20024;-83
2023/07/31 09:41:40;;;;;;;1.52;0.65;;;;;;;40.24;44.22;98429.31;7392825;19;20060;-82
2023/07/31 09:44:07;;;;;;;2.92;0.20;;;;;;;41.01;42.50;98430.44;7392837;19;20018;-81
2023/07/31 09:46:35;;;;;;;2.30;0.10;;;;;;;39.77;43.22;98434.06;7391806;19;20022;-82
2023/07/31 09:49:09;;;;;;;2.38;0.10;;;;;;;39.08;43.81;98447.19;7401790;19;20019;-82
2023/07/31 09:51:41;;;;;;;0.08;0.03;;;;;;;39.08;42.72;98455.19;7398609;19;20465;-82
2023/07/31 09:54:12;;;;;;;3.92;0.25;;;;;;;39.02;43.36;98452.22;7397991;19;20015;-82
2023/07/31 09:56:46;;;;;;;0.47;0.10;;;;;;;37.40;45.31;98462.81;7396070;19;20010;-81
2023/07/31 09:59:15;;;;;;;0.57;0.17;;;;;;;38.40;44.62;98472.50;7399204;19;20028;-83
2023/07/31 10:01:42;;;;;;;0.28;0.10;;;;;;;39.41;42.32;98465.78;7396866;19;20031;-81
2023/07/31 10:04:12;;;;;;;1.67;0.38;;;;;;;39.69;41.63;98454.41;7396933;19;20010;-81
2023/07/31 10:06:39;;;;;;;2.08;0.20;;;;;;;36.80;46.03;98468.88;7399998;19;20018;-81
2023/07/31 10:09:09;;;;;;;2.58;0.20;;;;;;;37.32;45.13;98475.00;7398588;19;20032;-82
2023/07/31 10:11:41;;;;;;;0.82;0.30;;;;;;;37.75;44.72;98479.44;7397154;19;20514;-82
2023/07/31 10:14:08;;;;;;;0.20;0.10;;;;;;;37.12;45.20;98483.34;7395972;19;20487;-82
2023/07/31 10:16:39;;;;;;;5.82;0.75;;;;;;;38.82;43.00;98473.09;7399543;19;20052;-82
2023/07/31 10:19:05;;;;;;;0.40;0.15;;;;;;;39.63;41.14;98457.28;7400120;19;20081;-83
2023/07/31 10:21:35;;;;;;;0.10;0.05;;;;;;;38.24;42.35;98443.88;7398768;19;20464;-82
2023/07/31 10:24:04;;;;;;;0.67;0.30;;;;;;;37.99;42.56;98426.78;7397003;19;20011;-82
2023/07/31 10:26:35;;;;;;;1.13;0.22;;;;;;;38.12;41.98;98414.59;7396780;19;20272;-83
2023/07/31 10:29:01;;;;;;;;;;;;;;;38.01;42.81;98418.81;7398662;19;20029;-82
2023/07/31 10:31:28;;;;;;;0.10;0.10;;;;;;;39.80;41.17;98415.13;7391845;19;20246;-82
2023/07/31 10:33:57;;;;;;;0.57;0.50;;;;;;;40.06;40.58;98424.09;7393665;19;20010;-82
2023/07/31 10:36:24;;;;;;;5.00;0.43;;;;;;;41.52;38.22;98429.06;7396217;19;20014;-82
2023/07/31 10:38:52;;;;;;;0.95;0.77;;;;;;;42.06;36.59;98413.03;7395385;19;20449;-83
2023/07/31 10:41:19;;;;;;;1.23;0.20;;;;;;;36.06;41.65;98415.00;7393243;19;20156;-83
2023/07/31 10:43:46;;;;;;;0.65;0.28;;;;;;;42.38;36.65;98424.66;7393903;19;20015;-83
2023/07/31 10:46:13;;;;;;;13.10;0.55;;;;;;;30.01;62.22;98443.69;7396492;19;20014;-83
2023/07/31 10:48:44;;;;;;;0.65;0.43;;;;;;;23.74;100.00;98456.97;7396385;19;20022;-83
2023/07/31 10:51:12;;;;;;;0.95;0.40;;;;;;;22.46;100.00;98460.03;7393962;19;20501;-82
2023/07/31 10:53:40;;;;;;;0.30;0.25;;;;;;;22.42;100.00;98448.38;7393286;19;20021;-82
2023/07/31 10:56:08;;;;;;;0.55;0.30;;;;;;;21.89;100.00;98457.66;7396036;19;20038;-82
2023/07/31 10:58:36;;;;;;;1.02;0.25;;;;;;;25.47;100.00;98454.84;7402722;19;20022;-83
2023/07/31 11:01:05;;;;;;;0.17;0.10;;;;;;;25.60;100.00;98444.25;7404881;19;20031;-82
2023/07/31 11:03:42;;;;;;;0.20;0.10;;;;;;;28.45;100.00;98438.59;7398326;19;20359;-82
2023/07/31 11:06:09;;;;;;;1.67;0.20;;;;;;;24.50;100.00;98453.19;7399739;19;20018;-83
2023/07/31 11:08:42;;;;;;;2.83;1.05;;;;;;;31.62;76.17;98451.72;7391399;19;20828;-83
2023/07/31 11:11:11;;;;;;;1.23;0.15;;;;;;;38.38;59.43;98452.13;7389236;19;20022;-83
2023/07/31 11:13:51;;;;;;;0.17;0.17;;;;;;;40.60;46.84;98455.06;7392186;19;20015;-82
2023/07/31 11:16:20;;;;;;;1.50;0.65;;;;;;;42.49;41.20;98455.38;7395129;19;20014;-82
2023/07/31 11:18:48;;;;;;;0.63;0.30;;;;;;;43.36;38.27;98455.03;7396402;19;20030;-82
2023/07/31 11:21:22;;;;;;;4.38;0.25;;;;;;;40.36;40.56;98458.56;7394486;19;20015;-82
2023/07/31 11:23:58;;;;;;;1.50;0.40;;;;;;;39.80;40.68;98450.13;7391898;19;20473;-82
2023/07/31 11:26:25;;;;;;;0.35;0.35;;;;;;;41.41;39.03;98441.50;7391572;19;20493;-81
2023/07/31 11:28:51;;;;;;;1.23;0.20;;;;;;;43.06;36.55;98440.53;7394812;19;20018;-81